sensor_id;sensor_type;location;lat;lon;timestamp;pressure;altitude;pressure_sealevel;temperature;humidity
2339;BME280;1180;51.438;6.978;2022-08-21T00:01:25;100415.44;;;22.44;70.55
2339;BME280;1180;51.438;6.978;2022-08-21T00:03:51;100410.22;;;22.35;70.72
2339;BME280;1180;51.438;6.978;2022-08-21T00:06:17;100410.22;;;22.44;70.62
2339;BME280;1180;51.438;6.978;2022-08-21T00:08:43;100404.00;;;22.36;70.51
2339;BME280;1180;51.438;6.978;2022-08-21T00:11:09;100404.00;;;22.36;70.84
2339;BME280;1180;51.438;6.978;2022-08-21T00:13:35;100402.19;;;22.37;70.69
2339;BME280;1180;51.438;6.978;2022-08-21T00:16:01;100399.13;;;22.33;71.11
2339;BME280;1180;51.438;6.978;2022-08-21T00:18:27;100393.41;;;22.38;71.19
2339;BME280;1180;51.438;6.978;2022-08-21T00:20:53;100386.38;;;22.30;71.20
2339;BME280;1180;51.438;6.978;2022-08-21T00:23:19;100380.97;;;22.32;71.38
2339;BME280;1180;51.438;6.978;2022-08-21T00:25:44;100379.84;;;22.34;71.23
2339;BME280;1180;51.438;6.978;2022-08-21T00:28:11;100381.81;;;22.32;71.50
2339;BME280;1180;51.438;6.978;2022-08-21T00:30:38;100383.91;;;22.29;71.66
2339;BME280;1180;51.438;6.978;2022-08-21T00:33:03;100375.28;;;22.28;71.85
2339;BME280;1180;51.438;6.978;2022-08-21T00:35:38;100375.91;;;22.30;71.33
2339;BME280;1180;51.438;6.978;2022-08-21T00:38:05;100372.16;;;22.25;71.83
2339;BME280;1180;51.438;6.978;2022-08-21T00:40:34;100375.44;;;22.18;71.89
2339;BME280;1180;51.438;6.978;2022-08-21T00:43:03;100377.41;;;22.16;71.91
2339;BME280;1180;51.438;6.978;2022-08-21T00:45:29;100373.16;;;22.24;71.64
2339;BME280;1180;51.438;6.978;2022-08-21T00:47:55;100372.00;;;22.10;72.02
2339;BME280;1180;51.438;6.978;2022-08-21T00:50:22;100373.31;;;22.05;72.21
2339;BME280;1180;51.438;6.978;2022-08-21T00:52:51;100384.28;;;22.09;72.68
2339;BME280;1180;51.438;6.978;2022-08-21T00:55:18;100375.59;;;22.00;72.82
2339;BME280;1180;51.438;6.978;2022-08-21T00:57:47;100376.75;;;22.06;72.54
2339;BME280;1180;51.438;6.978;2022-08-21T01:00:18;100372.66;;;22.03;72.41
2339;BME280;1180;51.438;6.978;2022-08-21T01:02:45;100376.91;;;22.04;72.75
2339;BME280;1180;51.438;6.978;2022-08-21T01:05:12;100377.75;;;22.05;72.92
2339;BME280;1180;51.438;6.978;2022-08-21T01:07:38;100376.75;;;21.89;73.64
2339;BME280;1180;51.438;6.978;2022-08-21T01:10:05;100374.59;;;21.85;73.61
2339;BME280;1180;51.438;6.978;2022-08-21T01:12:31;100372.31;;;21.73;74.04
2339;BME280;1180;51.438;6.978;2022-08-21T01:14:57;100381.78;;;21.66;74.49
2339;BME280;1180;51.438;6.978;2022-08-21T01:17:24;100376.03;;;21.62;74.46
2339;BME280;1180;51.438;6.978;2022-08-21T01:19:51;100379.47;;;21.63;74.80
2339;BME280;1180;51.438;6.978;2022-08-21T01:22:17;100381.13;;;21.64;74.96
2339;BME280;1180;51.438;6.978;2022-08-21T01:24:42;100383.06;;;21.62;75.21
2339;BME280;1180;51.438;6.978;2022-08-21T01:27:08;100379.44;;;21.55;75.78
2339;BME280;1180;51.438;6.978;2022-08-21T01:32:19;100381.03;;;21.47;75.53
2339;BME280;1180;51.438;6.978;2022-08-21T01:34:47;100387.56;;;21.43;75.85
2339;BME280;1180;51.438;6.978;2022-08-21T01:37:13;100386.75;;;21.43;75.57
2339;BME280;1180;51.438;6.978;2022-08-21T01:39:40;100379.28;;;21.48;75.73
2339;BME280;1180;51.438;6.978;2022-08-21T01:42:06;100377.78;;;21.54;75.42
2339;BME280;1180;51.438;6.978;2022-08-21T01:44:31;100386.75;;;21.43;75.79
2339;BME280;1180;51.438;6.978;2022-08-21T01:46:59;100385.78;;;21.44;75.57
2339;BME280;1180;51.438;6.978;2022-08-21T01:49:25;100383.63;;;21.31;76.58
2339;BME280;1180;51.438;6.978;2022-08-21T01:51:50;100383.28;;;21.26;76.35
2339;BME280;1180;51.438;6.978;2022-08-21T01:54:16;100386.22;;;21.31;76.24
2339;BME280;1180;51.438;6.978;2022-08-21T01:56:47;100374.09;;;21.13;77.18
2339;BME280;1180;51.438;6.978;2022-08-21T01:59:14;100371.34;;;21.23;76.63
2339;BME280;1180;51.438;6.978;2022-08-21T02:01:40;100370.56;;;21.23;76.76
2339;BME280;1180;51.438;6.978;2022-08-21T02:04:06;100370.38;;;21.24;76.34
2339;BME280;1180;51.438;6.978;2022-08-21T02:06:33;100365.28;;;21.14;76.80
2339;BME280;1180;51.438;6.978;2022-08-21T02:08:58;100371.47;;;21.13;76.63
2339;BME280;1180;51.438;6.978;2022-08-21T02:11:24;100365.59;;;21.03;77.28
2339;BME280;1180;51.438;6.978;2022-08-21T02:13:49;100368.16;;;20.95;77.55
2339;BME280;1180;51.438;6.978;2022-08-21T02:16:15;100371.88;;;20.92;77.53
2339;BME280;1180;51.438;6.978;2022-08-21T02:18:41;100368.16;;;20.95;77.66
2339;BME280;1180;51.438;6.978;2022-08-21T02:21:06;100359.94;;;20.81;78.29
2339;BME280;1180;51.438;6.978;2022-08-21T02:23:32;100358.28;;;20.80;77.85
2339;BME280;1180;51.438;6.978;2022-08-21T02:26:02;100357.00;;;20.84;77.81
2339;BME280;1180;51.438;6.978;2022-08-21T02:28:28;100353.22;;;20.78;77.79
2339;BME280;1180;51.438;6.978;2022-08-21T02:30:55;100359.88;;;20.73;77.87
2339;BME280;1180;51.438;6.978;2022-08-21T02:33:21;100354.41;;;20.84;77.61
2339;BME280;1180;51.438;6.978;2022-08-21T02:35:47;100355.06;;;20.86;77.21
2339;BME280;1180;51.438;6.978;2022-08-21T02:38:19;100352.75;;;20.83;77.22
2339;BME280;1180;51.438;6.978;2022-08-21T02:40:46;100355.38;;;20.83;77.29
2339;BME280;1180;51.438;6.978;2022-08-21T02:43:13;100356.03;;;20.85;76.93
2339;BME280;1180;51.438;6.978;2022-08-21T02:45:43;100350.25;;;20.73;77.74
2339;BME280;1180;51.438;6.978;2022-08-21T02:48:11;100349.53;;;20.63;78.32
2339;BME280;1180;51.438;6.978;2022-08-21T02:50:43;100349.09;;;20.68;77.81
2339;BME280;1180;51.438;6.978;2022-08-21T02:53:11;100349.75;;;20.70;78.21
2339;BME280;1180;51.438;6.978;2022-08-21T02:55:39;100356.91;;;20.68;77.89
2339;BME280;1180;51.438;6.978;2022-08-21T02:58:07;100358.56;;;20.77;77.65
2339;BME280;1180;51.438;6.978;2022-08-21T03:00:34;100355.69;;;20.80;77.07
2339;BME280;1180;51.438;6.978;2022-08-21T03:03:01;100361.56;;;20.82;77.29
2339;BME280;1180;51.438;6.978;2022-08-21T03:05:28;100357.31;;;20.81;77.04
2339;BME280;1180;51.438;6.978;2022-08-21T03:07:57;100354.91;;;20.88;76.63
2339;BME280;1180;51.438;6.978;2022-08-21T03:10:24;100347.59;;;20.91;76.60
2339;BME280;1180;51.438;6.978;2022-08-21T03:12:50;100343.97;;;20.84;77.02
2339;BME280;1180;51.438;6.978;2022-08-21T03:15:19;100345.31;;;20.88;76.45
2339;BME280;1180;51.438;6.978;2022-08-21T03:17:45;100346.78;;;20.91;76.34
2339;BME280;1180;51.438;6.978;2022-08-21T03:20:13;100343.19;;;20.92;76.33
2339;BME280;1180;51.438;6.978;2022-08-21T03:22:40;100346.00;;;20.99;76.21
2339;BME280;1180;51.438;6.978;2022-08-21T03:25:06;100346.97;;;20.98;76.17
2339;BME280;1180;51.438;6.978;2022-08-21T03:27:32;100347.22;;;20.86;76.68
2339;BME280;1180;51.438;6.978;2022-08-21T03:29:59;100346.78;;;20.91;76.44
2339;BME280;1180;51.438;6.978;2022-08-21T03:32:25;100346.78;;;20.91;76.27
2339;BME280;1180;51.438;6.978;2022-08-21T03:34:51;100347.91;;;20.88;76.79
2339;BME280;1180;51.438;6.978;2022-08-21T03:37:16;100350.47;;;20.80;78.06
2339;BME280;1180;51.438;6.978;2022-08-21T03:39:44;100346.78;;;20.64;78.67
2339;BME280;1180;51.438;6.978;2022-08-21T03:42:10;100354.84;;;20.53;78.91
2339;BME280;1180;51.438;6.978;2022-08-21T03:44:36;100358.28;;;20.54;78.75
2339;BME280;1180;51.438;6.978;2022-08-21T03:47:02;100359.06;;;20.46;79.55
2339;BME280;1180;51.438;6.978;2022-08-21T03:49:28;100361.69;;;20.54;79.45
2339;BME280;1180;51.438;6.978;2022-08-21T03:51:54;100362.41;;;20.56;78.93
2339;BME280;1180;51.438;6.978;2022-08-21T03:54:19;100354.31;;;20.41;79.07
2339;BME280;1180;51.438;6.978;2022-08-21T03:56:45;100349.69;;;20.35;79.13
2339;BME280;1180;51.438;6.978;2022-08-21T03:59:10;100350.84;;;20.32;79.02
2339;BME280;1180;51.438;6.978;2022-08-21T04:01:36;100352.47;;;20.33;79.09
2339;BME280;1180;51.438;6.978;2022-08-21T04:04:03;100351.03;;;20.39;78.77
2339;BME280;1180;51.438;6.978;2022-08-21T04:06:28;100354.75;;;20.37;78.87
2339;BME280;1180;51.438;6.978;2022-08-21T04:08:53;100358.34;;;20.35;79.12
2339;BME280;1180;51.438;6.978;2022-08-21T04:11:19;100364.16;;;20.29;78.88
2339;BME280;1180;51.438;6.978;2022-08-21T04:13:45;100365.94;;;20.29;79.20
2339;BME280;1180;51.438;6.978;2022-08-21T04:16:11;100357.97;;;20.30;79.19
2339;BME280;1180;51.438;6.978;2022-08-21T04:18:36;100361.75;;;20.36;79.21
2339;BME280;1180;51.438;6.978;2022-08-21T04:21:02;100358.97;;;20.29;79.39
2339;BME280;1180;51.438;6.978;2022-08-21T04:23:29;100366.09;;;20.27;79.68
2339;BME280;1180;51.438;6.978;2022-08-21T04:25:55;100359.84;;;20.20;79.92
2339;BME280;1180;51.438;6.978;2022-08-21T04:28:25;100364.38;;;20.18;80.09
2339;BME280;1180;51.438;6.978;2022-08-21T04:30:51;100363.00;;;20.05;80.32
2339;BME280;1180;51.438;6.978;2022-08-21T04:33:18;100359.88;;;20.02;80.87
2339;BME280;1180;51.438;6.978;2022-08-21T04:35:43;100363.59;;;19.99;80.73
2339;BME280;1180;51.438;6.978;2022-08-21T04:38:09;100360.25;;;20.07;80.61
2339;BME280;1180;51.438;6.978;2022-08-21T04:40:35;100360.69;;;20.02;80.60
2339;BME280;1180;51.438;6.978;2022-08-21T04:43:04;100361.38;;;20.04;80.57
2339;BME280;1180;51.438;6.978;2022-08-21T04:45:49;100361.66;;;20.01;80.81
2339;BME280;1180;51.438;6.978;2022-08-21T04:48:18;100374.34;;;19.96;80.64
2339;BME280;1180;51.438;6.978;2022-08-21T04:50:49;100378.56;;;19.97;80.35
2339;BME280;1180;51.438;6.978;2022-08-21T04:53:21;100377.91;;;20.13;80.05
2339;BME280;1180;51.438;6.978;2022-08-21T04:55:47;100373.19;;;20.17;79.29
2339;BME280;1180;51.438;6.978;2022-08-21T04:58:15;100378.31;;;20.27;79.16
2339;BME280;1180;51.438;6.978;2022-08-21T05:00:43;100379.34;;;20.34;78.75
2339;BME280;1180;51.438;6.978;2022-08-21T05:03:11;100375.00;;;20.43;78.46
2339;BME280;1180;51.438;6.978;2022-08-21T05:05:37;100379.16;;;20.54;78.45
2339;BME280;1180;51.438;6.978;2022-08-21T05:08:06;100387.19;;;20.60;77.62
2339;BME280;1180;51.438;6.978;2022-08-21T05:10:32;100379.72;;;20.66;77.54
2339;BME280;1180;51.438;6.978;2022-08-21T05:12:58;100382.66;;;20.71;77.35
2339;BME280;1180;51.438;6.978;2022-08-21T05:15:25;100381.38;;;20.75;77.26
2339;BME280;1180;51.438;6.978;2022-08-21T05:17:51;100388.91;;;20.78;77.10
2339;BME280;1180;51.438;6.978;2022-08-21T05:20:16;100383.56;;;20.80;77.14
2339;BME280;1180;51.438;6.978;2022-08-21T05:22:42;100383.69;;;20.78;77.01
2339;BME280;1180;51.438;6.978;2022-08-21T05:25:08;100380.66;;;20.83;77.18
2339;BME280;1180;51.438;6.978;2022-08-21T05:27:34;100381.63;;;20.82;76.76
2339;BME280;1180;51.438;6.978;2022-08-21T05:30:00;100382.44;;;20.82;77.40
2339;BME280;1180;51.438;6.978;2022-08-21T05:32:25;100381.84;;;20.88;76.97
2339;BME280;1180;51.438;6.978;2022-08-21T05:34:53;100387.56;;;21.00;76.69
2339;BME280;1180;51.438;6.978;2022-08-21T05:37:19;100391.66;;;21.03;76.25
2339;BME280;1180;51.438;6.978;2022-08-21T05:39:45;100385.47;;;21.04;76.61
2339;BME280;1180;51.438;6.978;2022-08-21T05:42:10;100380.47;;;21.11;76.29
2339;BME280;1180;51.438;6.978;2022-08-21T05:44:35;100387.47;;;21.18;75.93
2339;BME280;1180;51.438;6.978;2022-08-21T05:47:09;100387.84;;;21.24;75.46
2339;BME280;1180;51.438;6.978;2022-08-21T05:49:34;100384.91;;;21.27;75.39
2339;BME280;1180;51.438;6.978;2022-08-21T05:52:01;100386.22;;;21.31;75.17
2339;BME280;1180;51.438;6.978;2022-08-21T05:54:26;100394.38;;;21.28;74.90
2339;BME280;1180;51.438;6.978;2022-08-21T05:56:52;100383.94;;;21.28;74.41
2339;BME280;1180;51.438;6.978;2022-08-21T05:59:17;100386.09;;;21.41;74.41
2339;BME280;1180;51.438;6.978;2022-08-21T06:01:43;100388.53;;;21.42;74.06
2339;BME280;1180;51.438;6.978;2022-08-21T06:04:10;100380.22;;;21.39;74.26
2339;BME280;1180;51.438;6.978;2022-08-21T06:06:36;100368.31;;;21.44;73.83
2339;BME280;1180;51.438;6.978;2022-08-21T06:09:01;100374.53;;;21.52;73.36
2339;BME280;1180;51.438;6.978;2022-08-21T06:11:27;100374.72;;;21.58;72.91
2339;BME280;1180;51.438;6.978;2022-08-21T06:13:52;100372.00;;;21.68;72.62
2339;BME280;1180;51.438;6.978;2022-08-21T06:16:17;100368.06;;;21.72;72.16
2339;BME280;1180;51.438;6.978;2022-08-21T06:18:44;100372.00;;;21.68;71.99
2339;BME280;1180;51.438;6.978;2022-08-21T06:21:10;100372.31;;;21.65;72.17
2339;BME280;1180;51.438;6.978;2022-08-21T06:23:36;100372.31;;;21.65;72.23
2339;BME280;1180;51.438;6.978;2022-08-21T06:26:03;100379.97;;;21.67;72.05
2339;BME280;1180;51.438;6.978;2022-08-21T06:28:29;100374.75;;;21.67;71.25
2339;BME280;1180;51.438;6.978;2022-08-21T06:30:55;100380.47;;;21.78;70.73
2339;BME280;1180;51.438;6.978;2022-08-21T06:33:20;100374.94;;;21.82;70.25
2339;BME280;1180;51.438;6.978;2022-08-21T06:35:46;100380.19;;;21.90;70.24
2339;BME280;1180;51.438;6.978;2022-08-21T06:38:11;100383.94;;;21.96;70.40
2339;BME280;1180;51.438;6.978;2022-08-21T06:40:37;100388.50;;;22.02;69.94
2339;BME280;1180;51.438;6.978;2022-08-21T06:43:12;100381.81;;;21.99;69.91
2339;BME280;1180;51.438;6.978;2022-08-21T06:45:39;100387.19;;;21.98;69.65
2339;BME280;1180;51.438;6.978;2022-08-21T06:48:05;100390.13;;;22.03;69.79
2339;BME280;1180;51.438;6.978;2022-08-21T06:50:32;100379.84;;;22.10;69.40
2339;BME280;1180;51.438;6.978;2022-08-21T06:53:04;100392.09;;;22.01;69.44
2339;BME280;1180;51.438;6.978;2022-08-21T06:55:30;100385.72;;;22.03;69.80
2339;BME280;1180;51.438;6.978;2022-08-21T06:57:56;100392.91;;;22.10;69.71
2339;BME280;1180;51.438;6.978;2022-08-21T07:00:21;100392.75;;;22.28;68.65
2339;BME280;1180;51.438;6.978;2022-08-21T07:02:47;100393.09;;;22.16;68.38
2339;BME280;1180;51.438;6.978;2022-08-21T07:05:13;100390.47;;;22.00;68.38
2339;BME280;1180;51.438;6.978;2022-08-21T07:07:41;100387.66;;;21.85;69.21
2339;BME280;1180;51.438;6.978;2022-08-21T07:10:07;100391.75;;;21.79;69.89
2339;BME280;1180;51.438;6.978;2022-08-21T07:12:32;100394.00;;;21.66;71.01
2339;BME280;1180;51.438;6.978;2022-08-21T07:14:58;100388.59;;;21.59;71.10
2339;BME280;1180;51.438;6.978;2022-08-21T07:17:23;100398.84;;;21.52;69.88
2339;BME280;1180;51.438;6.978;2022-08-21T07:19:48;100388.88;;;21.39;71.18
2339;BME280;1180;51.438;6.978;2022-08-21T07:22:18;100388.00;;;21.30;71.42
2339;BME280;1180;51.438;6.978;2022-08-21T07:24:45;100391.94;;;21.34;72.17
2339;BME280;1180;51.438;6.978;2022-08-21T07:27:11;100393.88;;;21.32;72.29
2339;BME280;1180;51.438;6.978;2022-08-21T07:29:36;100393.75;;;21.42;71.68
2339;BME280;1180;51.438;6.978;2022-08-21T07:32:03;100394.41;;;21.36;71.94
2339;BME280;1180;51.438;6.978;2022-08-21T07:34:28;100394.75;;;21.41;72.02
2339;BME280;1180;51.438;6.978;2022-08-21T07:36:55;100386.44;;;21.46;71.62
2339;BME280;1180;51.438;6.978;2022-08-21T07:39:20;100382.06;;;21.55;71.63
2339;BME280;1180;51.438;6.978;2022-08-21T07:41:45;100379.16;;;21.66;71.30
2339;BME280;1180;51.438;6.978;2022-08-21T07:44:11;100380.44;;;21.62;71.54
2339;BME280;1180;51.438;6.978;2022-08-21T07:46:36;100383.19;;;21.60;71.58
2339;BME280;1180;51.438;6.978;2022-08-21T07:49:01;100382.94;;;21.72;71.60
2339;BME280;1180;51.438;6.978;2022-08-21T07:51:28;100380.00;;;21.83;71.46
2339;BME280;1180;51.438;6.978;2022-08-21T07:53:55;100388.97;;;21.81;71.08
2339;BME280;1180;51.438;6.978;2022-08-21T07:56:21;100383.75;;;21.81;69.86
2339;BME280;1180;51.438;6.978;2022-08-21T07:58:47;100393.69;;;21.69;70.09
2339;BME280;1180;51.438;6.978;2022-08-21T08:01:13;100382.22;;;21.61;69.52
2339;BME280;1180;51.438;6.978;2022-08-21T08:03:38;100385.00;;;21.60;69.14
2339;BME280;1180;51.438;6.978;2022-08-21T08:06:05;100386.19;;;21.66;68.85
2339;BME280;1180;51.438;6.978;2022-08-21T08:08:32;100371.63;;;21.63;67.82
2339;BME280;1180;51.438;6.978;2022-08-21T08:10:58;100384.72;;;21.71;66.88
2339;BME280;1180;51.438;6.978;2022-08-21T08:13:24;100382.13;;;21.79;66.82
2339;BME280;1180;51.438;6.978;2022-08-21T08:15:50;100384.25;;;21.92;66.63
2339;BME280;1180;51.438;6.978;2022-08-21T08:18:16;100383.94;;;21.96;65.32
2339;BME280;1180;51.438;6.978;2022-08-21T08:20:41;100381.16;;;21.97;65.47
2339;BME280;1180;51.438;6.978;2022-08-21T08:23:10;100378.22;;;22.00;64.94
2339;BME280;1180;51.438;6.978;2022-08-21T08:25:36;100379.03;;;22.17;64.76
2339;BME280;1180;51.438;6.978;2022-08-21T08:28:01;100375.44;;;22.18;64.20
2339;BME280;1180;51.438;6.978;2022-08-21T08:30:26;100376.59;;;22.24;64.49
2339;BME280;1180;51.438;6.978;2022-08-21T08:32:52;100379.50;;;22.38;64.28
2339;BME280;1180;51.438;6.978;2022-08-21T08:35:18;100378.19;;;22.50;64.24
2339;BME280;1180;51.438;6.978;2022-08-21T08:37:43;100382.13;;;22.54;63.37
2339;BME280;1180;51.438;6.978;2022-08-21T08:40:33;100379.53;;;22.54;62.64
2339;BME280;1180;51.438;6.978;2022-08-21T08:43:03;100376.06;;;22.62;63.06
2339;BME280;1180;51.438;6.978;2022-08-21T08:45:33;100386.03;;;22.67;61.99
2339;BME280;1180;51.438;6.978;2022-08-21T08:48:05;100387.69;;;22.59;62.29
2339;BME280;1180;51.438;6.978;2022-08-21T08:50:59;100383.72;;;22.72;62.27
2339;BME280;1180;51.438;6.978;2022-08-21T08:53:41;100384.47;;;22.89;62.12
2339;BME280;1180;51.438;6.978;2022-08-21T08:56:10;100369.91;;;22.94;61.68
2339;BME280;1180;51.438;6.978;2022-08-21T08:58:40;100373.97;;;23.05;61.82
2339;BME280;1180;51.438;6.978;2022-08-21T09:01:16;100366.22;;;23.12;61.43
2339;BME280;1180;51.438;6.978;2022-08-21T09:03:42;100370.66;;;23.12;61.16
2339;BME280;1180;51.438;6.978;2022-08-21T09:06:21;100356.44;;;23.06;60.47
2339;BME280;1180;51.438;6.978;2022-08-21T09:11:54;100360.53;;;23.00;59.97
2339;BME280;1180;51.438;6.978;2022-08-21T09:14:38;100364.28;;;23.06;59.63
2339;BME280;1180;51.438;6.978;2022-08-21T09:25:08;100357.06;;;23.25;60.13
2339;BME280;1180;51.438;6.978;2022-08-21T09:27:37;100359.28;;;23.36;60.03
2339;BME280;1180;51.438;6.978;2022-08-21T09:30:04;100362.19;;;23.41;59.74
2339;BME280;1180;51.438;6.978;2022-08-21T09:32:32;100355.59;;;23.45;58.93
2339;BME280;1180;51.438;6.978;2022-08-21T09:38:05;100360.59;;;23.32;59.02
2339;BME280;1180;51.438;6.978;2022-08-21T09:45:40;100361.13;;;23.50;57.26
2339;BME280;1180;51.438;6.978;2022-08-21T09:48:12;100354.59;;;23.55;57.10
2339;BME280;1180;51.438;6.978;2022-08-21T09:50:38;100352.34;;;23.66;58.08
2339;BME280;1180;51.438;6.978;2022-08-21T09:53:04;100348.78;;;23.83;57.70
2339;BME280;1180;51.438;6.978;2022-08-21T09:55:38;100349.41;;;23.85;57.92
2339;BME280;1180;51.438;6.978;2022-08-21T09:58:34;100346.84;;;24.00;57.46
2339;BME280;1180;51.438;6.978;2022-08-21T10:01:03;100353.44;;;23.95;55.59
2339;BME280;1180;51.438;6.978;2022-08-21T10:03:29;100342.44;;;24.00;55.36
2339;BME280;1180;51.438;6.978;2022-08-21T10:08:28;100342.69;;;23.90;55.33
2339;BME280;1180;51.438;6.978;2022-08-21T10:11:02;100343.72;;;24.04;54.96
2339;BME280;1180;51.438;6.978;2022-08-21T10:13:47;100343.00;;;24.11;54.41
2339;BME280;1180;51.438;6.978;2022-08-21T10:24:29;100344.78;;;24.48;53.11
2339;BME280;1180;51.438;6.978;2022-08-21T10:27:20;100340.69;;;24.46;52.75
2339;BME280;1180;51.438;6.978;2022-08-21T10:33:01;100338.81;;;24.70;53.15
2339;BME280;1180;51.438;6.978;2022-08-21T10:40:30;100329.31;;;24.69;52.89
2339;BME280;1180;51.438;6.978;2022-08-21T10:43:21;100326.84;;;24.67;53.91
2339;BME280;1180;51.438;6.978;2022-08-21T10:48:46;100319.78;;;24.98;51.90
2339;BME280;1180;51.438;6.978;2022-08-21T10:53:51;100327.81;;;25.11;51.42
2339;BME280;1180;51.438;6.978;2022-08-21T10:56:28;100325.59;;;25.30;52.01
2339;BME280;1180;51.438;6.978;2022-08-21T11:07:28;100322.19;;;25.73;49.70
2339;BME280;1180;51.438;6.978;2022-08-21T11:09:59;100324.22;;;25.77;50.26
2339;BME280;1180;51.438;6.978;2022-08-21T11:15:52;100316.56;;;25.83;49.77
2339;BME280;1180;51.438;6.978;2022-08-21T11:18:28;100315.44;;;25.92;50.46
2339;BME280;1180;51.438;6.978;2022-08-21T11:24:03;100319.50;;;25.94;50.12
2339;BME280;1180;51.438;6.978;2022-08-21T11:26:41;100313.13;;;26.04;50.35
2339;BME280;1180;51.438;6.978;2022-08-21T11:29:31;100319.31;;;25.96;50.38
2339;BME280;1180;51.438;6.978;2022-08-21T11:43:40;100323.91;;;26.16;49.02
2339;BME280;1180;51.438;6.978;2022-08-21T11:52:07;100317.00;;;26.43;48.68
2339;BME280;1180;51.438;6.978;2022-08-21T11:54:42;100318.91;;;26.56;47.81
2339;BME280;1180;51.438;6.978;2022-08-21T11:57:16;100326.63;;;26.64;47.85
2339;BME280;1180;51.438;6.978;2022-08-21T11:59:58;100323.84;;;26.79;47.39
2339;BME280;1180;51.438;6.978;2022-08-21T12:02:30;100335.34;;;26.72;46.51
2339;BME280;1180;51.438;6.978;2022-08-21T12:05:08;100316.91;;;26.65;45.71
2339;BME280;1180;51.438;6.978;2022-08-21T12:07:44;100317.28;;;26.62;45.61
2339;BME280;1180;51.438;6.978;2022-08-21T12:10:14;100316.28;;;26.56;46.02
2339;BME280;1180;51.438;6.978;2022-08-21T12:12:42;100316.66;;;26.60;46.25
2339;BME280;1180;51.438;6.978;2022-08-21T12:18:03;100319.72;;;26.63;46.72
2339;BME280;1180;51.438;6.978;2022-08-21T12:20:43;100314.47;;;26.63;46.73
2339;BME280;1180;51.438;6.978;2022-08-21T12:26:01;100304.94;;;26.62;46.48
2339;BME280;1180;51.438;6.978;2022-08-21T12:28:28;100299.34;;;26.79;46.86
2339;BME280;1180;51.438;6.978;2022-08-21T12:30:55;100294.47;;;26.76;47.62
2339;BME280;1180;51.438;6.978;2022-08-21T12:35:51;100292.75;;;27.10;45.72
2339;BME280;1180;51.438;6.978;2022-08-21T12:38:39;100295.63;;;27.08;46.87
2339;BME280;1180;51.438;6.978;2022-08-21T12:41:17;100296.44;;;27.22;46.58
2339;BME280;1180;51.438;6.978;2022-08-21T12:43:57;100296.88;;;27.46;45.67
2339;BME280;1180;51.438;6.978;2022-08-21T12:46:34;100294.47;;;27.72;45.31
2339;BME280;1180;51.438;6.978;2022-08-21T12:49:08;100295.47;;;27.57;44.40
2339;BME280;1180;51.438;6.978;2022-08-21T12:54:29;100295.84;;;27.34;44.81
2339;BME280;1180;51.438;6.978;2022-08-21T12:57:00;100288.34;;;27.44;45.13
2339;BME280;1180;51.438;6.978;2022-08-21T12:59:26;100283.47;;;27.34;44.17
2339;BME280;1180;51.438;6.978;2022-08-21T13:01:53;100294.59;;;27.09;45.20
2339;BME280;1180;51.438;6.978;2022-08-21T13:04:32;100290.59;;;27.34;45.20
2339;BME280;1180;51.438;6.978;2022-08-21T13:06:59;100290.81;;;27.59;44.08
2339;BME280;1180;51.438;6.978;2022-08-21T13:09:27;100297.53;;;27.68;45.18
2339;BME280;1180;51.438;6.978;2022-08-21T13:11:54;100290.63;;;27.61;44.42
2339;BME280;1180;51.438;6.978;2022-08-21T13:14:29;100290.59;;;27.67;44.90
2339;BME280;1180;51.438;6.978;2022-08-21T13:16:57;100284.69;;;27.32;44.34
2339;BME280;1180;51.438;6.978;2022-08-21T13:19:23;100285.84;;;26.95;46.17
2339;BME280;1180;51.438;6.978;2022-08-21T13:21:50;100287.72;;;27.22;45.39
2339;BME280;1180;51.438;6.978;2022-08-21T13:26:45;100280.84;;;27.41;43.92
2339;BME280;1180;51.438;6.978;2022-08-21T13:29:12;100278.41;;;27.46;44.25
2339;BME280;1180;51.438;6.978;2022-08-21T13:31:40;100282.91;;;27.73;45.33
2339;BME280;1180;51.438;6.978;2022-08-21T13:34:08;100282.88;;;27.86;44.81
2339;BME280;1180;51.438;6.978;2022-08-21T13:36:39;100284.53;;;27.74;44.03
2339;BME280;1180;51.438;6.978;2022-08-21T13:39:08;100281.69;;;27.75;43.62
2339;BME280;1180;51.438;6.978;2022-08-21T13:41:37;100277.63;;;27.79;43.57
2339;BME280;1180;51.438;6.978;2022-08-21T13:44:13;100281.28;;;27.85;43.97
2339;BME280;1180;51.438;6.978;2022-08-21T13:46:39;100270.25;;;28.08;44.04
2339;BME280;1180;51.438;6.978;2022-08-21T13:49:06;100270.28;;;28.22;44.17
2339;BME280;1180;51.438;6.978;2022-08-21T13:51:33;100261.78;;;27.93;43.89
2339;BME280;1180;51.438;6.978;2022-08-21T13:54:00;100275.13;;;28.25;44.04
2339;BME280;1180;51.438;6.978;2022-08-21T13:56:28;100274.31;;;28.24;42.31
2339;BME280;1180;51.438;6.978;2022-08-21T13:58:56;100274.06;;;28.39;43.84
2339;BME280;1180;51.438;6.978;2022-08-21T14:01:25;100279.47;;;28.58;43.94
2339;BME280;1180;51.438;6.978;2022-08-21T14:03:54;100274.72;;;28.21;41.18
2339;BME280;1180;51.438;6.978;2022-08-21T14:06:25;100271.47;;;28.13;41.76
2339;BME280;1180;51.438;6.978;2022-08-21T14:09:30;100260.50;;;28.29;43.06
2339;BME280;1180;51.438;6.978;2022-08-21T14:11:58;100273.88;;;28.41;42.08
2339;BME280;1180;51.438;6.978;2022-08-21T14:14:33;100271.28;;;28.21;42.10
2339;BME280;1180;51.438;6.978;2022-08-21T14:17:05;100275.72;;;28.14;42.45
2339;BME280;1180;51.438;6.978;2022-08-21T14:19:40;100269.25;;;28.09;42.45
2339;BME280;1180;51.438;6.978;2022-08-21T14:25:06;100273.69;;;28.36;41.09
2339;BME280;1180;51.438;6.978;2022-08-21T14:27:34;100266.75;;;28.42;41.40
2339;BME280;1180;51.438;6.978;2022-08-21T14:30:14;100278.91;;;28.43;43.17
2339;BME280;1180;51.438;6.978;2022-08-21T14:32:41;100263.91;;;28.43;41.29
2339;BME280;1180;51.438;6.978;2022-08-21T14:35:07;100272.19;;;28.47;40.19
2339;BME280;1180;51.438;6.978;2022-08-21T14:37:33;100263.25;;;28.54;41.32
2339;BME280;1180;51.438;6.978;2022-08-21T14:39:58;100256.25;;;28.67;42.88
2339;BME280;1180;51.438;6.978;2022-08-21T14:42:24;100258.69;;;28.75;43.13
2339;BME280;1180;51.438;6.978;2022-08-21T14:44:50;100264.97;;;28.74;41.47
2339;BME280;1180;51.438;6.978;2022-08-21T14:47:26;100264.34;;;28.79;40.23
2339;BME280;1180;51.438;6.978;2022-08-21T14:49:51;100265.53;;;28.90;39.76
2339;BME280;1180;51.438;6.978;2022-08-21T14:52:19;100258.44;;;29.16;40.10